Terminal Aerodrome Forecast
Issued by NWS

Home | Current Version | Previous Version | Graphics & Text | Print | Product List | Glossary On
Versions: 1 2 3 4 5 6 7 8 9 10 11 12 13 14 15 16 17 18 19 20
000
FTUS43 KABR 252300
TAFPIR
TAF
KPIR 252335Z 2600/2624 25005KT 6SM -SN BR FEW014 BKN023 OVC040
     FM260300 33026G35KT P6SM OVC015
     FM261500 36014KT P6SM OVC020=

USA.gov is the U.S. government's official web portal to all federal, state and local government web resources and services.